sensor_id;sensor_type;location;lat;lon;timestamp;pressure;altitude;pressure_sealevel;temperature;humidity
72585;BME280;60618;40.084;32.908;2023-04-26T00:01:14;89048.81;;;11.63;63.17
72585;BME280;60618;40.084;32.908;2023-04-26T00:03:41;89040.34;;;11.71;63.48
72585;BME280;60618;40.084;32.908;2023-04-26T00:06:08;89045.94;;;11.39;65.50
72585;BME280;60618;40.084;32.908;2023-04-26T00:08:35;89039.44;;;11.01;66.89
72585;BME280;60618;40.084;32.908;2023-04-26T00:11:03;89033.63;;;10.91;67.20
72585;BME280;60618;40.084;32.908;2023-04-26T00:13:30;89041.88;;;11.16;65.86
72585;BME280;60618;40.084;32.908;2023-04-26T00:15:57;89042.09;;;11.18;66.69
72585;BME280;60618;40.084;32.908;2023-04-26T00:18:24;89038.97;;;11.08;67.81
72585;BME280;60618;40.084;32.908;2023-04-26T00:20:51;89045.50;;;10.90;67.18
72585;BME280;60618;40.084;32.908;2023-04-26T00:23:18;89047.66;;;10.75;67.82
72585;BME280;60618;40.084;32.908;2023-04-26T00:25:45;89047.38;;;10.34;69.80
72585;BME280;60618;40.084;32.908;2023-04-26T00:28:12;89047.31;;;10.22;71.46
72585;BME280;60618;40.084;32.908;2023-04-26T00:30:39;89050.28;;;10.47;69.94
72585;BME280;60618;40.084;32.908;2023-04-26T00:33:06;89050.44;;;10.21;73.03
72585;BME280;60618;40.084;32.908;2023-04-26T00:35:33;89053.72;;;9.93;75.26
72585;BME280;60618;40.084;32.908;2023-04-26T00:38:00;89047.31;;;9.68;76.31
72585;BME280;60618;40.084;32.908;2023-04-26T00:40:26;89040.44;;;9.99;75.26
72585;BME280;60618;40.084;32.908;2023-04-26T00:42:57;89036.44;;;10.26;72.88
72585;BME280;60618;40.084;32.908;2023-04-26T00:45:25;89041.31;;;10.39;74.13
72585;BME280;60618;40.084;32.908;2023-04-26T00:47:52;89035.25;;;10.33;73.13
72585;BME280;60618;40.084;32.908;2023-04-26T00:50:19;89039.38;;;10.39;73.20
72585;BME280;60618;40.084;32.908;2023-04-26T00:52:46;89046.81;;;10.24;72.94
72585;BME280;60618;40.084;32.908;2023-04-26T00:55:14;89037.78;;;10.05;73.54
72585;BME280;60618;40.084;32.908;2023-04-26T00:57:44;89043.50;;;9.75;74.42
72585;BME280;60618;40.084;32.908;2023-04-26T01:00:11;89016.06;;;9.52;75.04
72585;BME280;60618;40.084;32.908;2023-04-26T01:02:38;89027.13;;;9.39;77.45
72585;BME280;60618;40.084;32.908;2023-04-26T01:05:06;89021.50;;;9.32;77.76
72585;BME280;60618;40.084;32.908;2023-04-26T01:07:37;89017.41;;;9.31;78.33
72585;BME280;60618;40.084;32.908;2023-04-26T01:10:04;89020.47;;;9.18;78.92
72585;BME280;60618;40.084;32.908;2023-04-26T01:12:31;89026.72;;;9.15;78.81
72585;BME280;60618;40.084;32.908;2023-04-26T01:14:59;89014.16;;;9.10;80.03
72585;BME280;60618;40.084;32.908;2023-04-26T01:17:26;89015.06;;;9.07;80.21
72585;BME280;60618;40.084;32.908;2023-04-26T01:19:53;89016.81;;;9.10;80.56
72585;BME280;60618;40.084;32.908;2023-04-26T01:22:20;89017.06;;;9.12;80.99
72585;BME280;60618;40.084;32.908;2023-04-26T01:24:49;89013.00;;;9.17;80.41
72585;BME280;60618;40.084;32.908;2023-04-26T01:27:16;89010.34;;;9.22;80.76
72585;BME280;60618;40.084;32.908;2023-04-26T01:29:43;89013.06;;;9.28;79.81
72585;BME280;60618;40.084;32.908;2023-04-26T01:32:10;89002.41;;;9.28;80.14
72585;BME280;60618;40.084;32.908;2023-04-26T01:34:37;89010.88;;;9.26;79.51
72585;BME280;60618;40.084;32.908;2023-04-26T01:37:04;89009.38;;;9.25;80.11
72585;BME280;60618;40.084;32.908;2023-04-26T01:39:31;89004.06;;;9.25;79.94
72585;BME280;60618;40.084;32.908;2023-04-26T01:41:58;89004.16;;;9.36;79.15
72585;BME280;60618;40.084;32.908;2023-04-26T01:44:25;89002.53;;;9.50;79.27
72585;BME280;60618;40.084;32.908;2023-04-26T01:46:52;89009.81;;;9.61;78.88
72585;BME280;60618;40.084;32.908;2023-04-26T01:49:19;88997.53;;;9.63;78.37
72585;BME280;60618;40.084;32.908;2023-04-26T01:51:46;88992.47;;;9.77;77.90
72585;BME280;60618;40.084;32.908;2023-04-26T01:54:13;88997.63;;;9.91;76.85
72585;BME280;60618;40.084;32.908;2023-04-26T01:56:40;88997.66;;;10.03;77.65
72585;BME280;60618;40.084;32.908;2023-04-26T01:59:06;88997.41;;;10.01;77.56
72585;BME280;60618;40.084;32.908;2023-04-26T02:01:33;88999.75;;;9.82;78.08
72585;BME280;60618;40.084;32.908;2023-04-26T02:04:00;88985.41;;;9.57;78.84
72585;BME280;60618;40.084;32.908;2023-04-26T02:06:27;88991.00;;;9.64;77.93
72585;BME280;60618;40.084;32.908;2023-04-26T02:08:55;88993.25;;;9.88;76.35
72585;BME280;60618;40.084;32.908;2023-04-26T02:11:22;88992.31;;;10.03;76.39
72585;BME280;60618;40.084;32.908;2023-04-26T02:13:49;88995.28;;;10.21;75.48
72585;BME280;60618;40.084;32.908;2023-04-26T02:16:16;89000.19;;;10.45;75.43
72585;BME280;60618;40.084;32.908;2023-04-26T02:18:43;89002.16;;;10.62;74.41
72585;BME280;60618;40.084;32.908;2023-04-26T02:21:10;89000.44;;;10.75;74.05
72585;BME280;60618;40.084;32.908;2023-04-26T02:23:37;89001.66;;;10.80;74.21
72585;BME280;60618;40.084;32.908;2023-04-26T02:26:04;88998.28;;;10.79;73.87
72585;BME280;60618;40.084;32.908;2023-04-26T02:28:31;89007.47;;;10.84;73.52
72585;BME280;60618;40.084;32.908;2023-04-26T02:30:58;89001.19;;;10.98;72.32
72585;BME280;60618;40.084;32.908;2023-04-26T02:33:25;88997.28;;;11.11;72.51
72585;BME280;60618;40.084;32.908;2023-04-26T02:35:52;88999.69;;;11.14;72.23
72585;BME280;60618;40.084;32.908;2023-04-26T02:38:19;88992.94;;;11.07;71.82
72585;BME280;60618;40.084;32.908;2023-04-26T02:40:46;89000.19;;;10.96;72.64
72585;BME280;60618;40.084;32.908;2023-04-26T02:43:12;89003.13;;;10.98;72.51
72585;BME280;60618;40.084;32.908;2023-04-26T02:45:40;88996.81;;;10.84;72.34
72585;BME280;60618;40.084;32.908;2023-04-26T02:48:07;88999.97;;;10.66;73.10
72585;BME280;60618;40.084;32.908;2023-04-26T02:50:34;88999.72;;;10.52;73.24
72585;BME280;60618;40.084;32.908;2023-04-26T02:53:02;88999.22;;;10.48;73.92
72585;BME280;60618;40.084;32.908;2023-04-26T02:55:28;88994.88;;;10.45;74.11
72585;BME280;60618;40.084;32.908;2023-04-26T02:57:55;88986.84;;;10.29;76.47
72585;BME280;60618;40.084;32.908;2023-04-26T03:00:22;88984.38;;;10.08;77.18
72585;BME280;60618;40.084;32.908;2023-04-26T03:02:49;88976.06;;;9.84;78.35
72585;BME280;60618;40.084;32.908;2023-04-26T03:05:17;88983.44;;;9.52;79.94
72585;BME280;60618;40.084;32.908;2023-04-26T03:07:44;88988.41;;;9.27;79.74
72585;BME280;60618;40.084;32.908;2023-04-26T03:10:11;88986.00;;;9.29;79.30
72585;BME280;60618;40.084;32.908;2023-04-26T03:12:38;88986.19;;;9.20;79.73
72585;BME280;60618;40.084;32.908;2023-04-26T03:15:05;88996.03;;;9.08;80.18
72585;BME280;60618;40.084;32.908;2023-04-26T03:17:33;88994.47;;;9.33;78.22
72585;BME280;60618;40.084;32.908;2023-04-26T03:19:59;89001.16;;;9.66;77.06
72585;BME280;60618;40.084;32.908;2023-04-26T03:22:28;88992.47;;;9.77;76.63
72585;BME280;60618;40.084;32.908;2023-04-26T03:24:55;88993.22;;;9.77;76.86
72585;BME280;60618;40.084;32.908;2023-04-26T03:27:22;88995.69;;;9.92;76.57
72585;BME280;60618;40.084;32.908;2023-04-26T03:29:49;88999.81;;;10.04;77.02
72585;BME280;60618;40.084;32.908;2023-04-26T03:32:15;89004.94;;;10.08;76.49
72585;BME280;60618;40.084;32.908;2023-04-26T03:34:43;88997.44;;;10.17;75.61
72585;BME280;60618;40.084;32.908;2023-04-26T03:37:09;88998.19;;;10.18;76.00
72585;BME280;60618;40.084;32.908;2023-04-26T03:39:36;88999.09;;;10.04;76.31
72585;BME280;60618;40.084;32.908;2023-04-26T03:42:03;88987.03;;;10.14;75.35
72585;BME280;60618;40.084;32.908;2023-04-26T03:44:30;88992.09;;;10.06;75.81
72585;BME280;60618;40.084;32.908;2023-04-26T03:46:57;88992.06;;;9.89;76.38
72585;BME280;60618;40.084;32.908;2023-04-26T03:49:24;88987.72;;;9.92;76.85
72585;BME280;60618;40.084;32.908;2023-04-26T03:51:51;88991.78;;;9.87;76.60
72585;BME280;60618;40.084;32.908;2023-04-26T03:54:18;88987.25;;;9.99;76.18
72585;BME280;60618;40.084;32.908;2023-04-26T03:56:44;88997.19;;;10.15;75.81
72585;BME280;60618;40.084;32.908;2023-04-26T03:59:11;88999.22;;;10.37;75.88
72585;BME280;60618;40.084;32.908;2023-04-26T04:01:38;88996.56;;;10.48;75.70
72585;BME280;60618;40.084;32.908;2023-04-26T04:04:05;89008.41;;;10.59;74.95
72585;BME280;60618;40.084;32.908;2023-04-26T04:06:32;89000.44;;;10.75;74.65
72585;BME280;60618;40.084;32.908;2023-04-26T04:08:59;89004.09;;;10.89;74.24
72585;BME280;60618;40.084;32.908;2023-04-26T04:11:26;88995.34;;;10.94;74.09
72585;BME280;60618;40.084;32.908;2023-04-26T04:13:52;88996.81;;;10.90;74.12
72585;BME280;60618;40.084;32.908;2023-04-26T04:16:19;89000.19;;;11.01;73.95
72585;BME280;60618;40.084;32.908;2023-04-26T04:18:46;88989.03;;;11.20;73.82
72585;BME280;60618;40.084;32.908;2023-04-26T04:21:13;88989.50;;;11.35;73.17
72585;BME280;60618;40.084;32.908;2023-04-26T04:23:41;88999.91;;;11.38;73.08
72585;BME280;60618;40.084;32.908;2023-04-26T04:26:08;88991.41;;;11.51;72.31
72585;BME280;60618;40.084;32.908;2023-04-26T04:28:35;88995.78;;;11.43;72.60
72585;BME280;60618;40.084;32.908;2023-04-26T04:31:02;88991.66;;;11.36;72.33
72585;BME280;60618;40.084;32.908;2023-04-26T04:33:29;88990.03;;;11.05;72.82
72585;BME280;60618;40.084;32.908;2023-04-26T04:35:56;88992.47;;;10.64;74.89
72585;BME280;60618;40.084;32.908;2023-04-26T04:38:23;88994.13;;;10.50;75.49
72585;BME280;60618;40.084;32.908;2023-04-26T04:40:49;88994.53;;;10.21;75.92
72585;BME280;60618;40.084;32.908;2023-04-26T04:43:16;88996.91;;;10.02;76.99
72585;BME280;60618;40.084;32.908;2023-04-26T04:45:43;88998.34;;;9.92;77.13
72585;BME280;60618;40.084;32.908;2023-04-26T04:48:10;89000.06;;;10.01;77.80
72585;BME280;60618;40.084;32.908;2023-04-26T04:50:38;89005.47;;;10.23;77.41
72585;BME280;60618;40.084;32.908;2023-04-26T04:53:05;89003.56;;;10.40;77.56
72585;BME280;60618;40.084;32.908;2023-04-26T04:55:32;89003.59;;;10.51;77.67
72585;BME280;60618;40.084;32.908;2023-04-26T04:57:58;88997.50;;;10.51;76.95
72585;BME280;60618;40.084;32.908;2023-04-26T05:00:25;88996.56;;;10.60;77.48
72585;BME280;60618;40.084;32.908;2023-04-26T05:02:55;89005.03;;;10.75;76.28
72585;BME280;60618;40.084;32.908;2023-04-26T05:05:22;89011.34;;;10.94;76.25
72585;BME280;60618;40.084;32.908;2023-04-26T05:07:50;89004.28;;;11.14;75.36
72585;BME280;60618;40.084;32.908;2023-04-26T05:10:17;89005.50;;;11.35;74.34
72585;BME280;60618;40.084;32.908;2023-04-26T05:12:44;88993.09;;;11.60;73.33
72585;BME280;60618;40.084;32.908;2023-04-26T05:15:11;89002.97;;;11.87;73.81
72585;BME280;60618;40.084;32.908;2023-04-26T05:17:37;88996.06;;;12.09;72.91
72585;BME280;60618;40.084;32.908;2023-04-26T05:20:05;89007.44;;;12.15;71.80
72585;BME280;60618;40.084;32.908;2023-04-26T05:22:32;89011.00;;;12.29;71.10
72585;BME280;60618;40.084;32.908;2023-04-26T05:24:59;89015.84;;;12.36;71.19
72585;BME280;60618;40.084;32.908;2023-04-26T05:27:27;89013.28;;;12.60;70.21
72585;BME280;60618;40.084;32.908;2023-04-26T05:29:54;89004.88;;;12.81;69.28
72585;BME280;60618;40.084;32.908;2023-04-26T05:32:21;89004.78;;;12.92;69.03
72585;BME280;60618;40.084;32.908;2023-04-26T05:34:48;88999.38;;;13.33;68.18
72585;BME280;60618;40.084;32.908;2023-04-26T05:37:15;89000.56;;;13.62;67.32
72585;BME280;60618;40.084;32.908;2023-04-26T05:39:42;88996.44;;;13.61;65.16
72585;BME280;60618;40.084;32.908;2023-04-26T05:42:09;89009.81;;;13.61;65.67
72585;BME280;60618;40.084;32.908;2023-04-26T05:44:36;89008.59;;;13.62;66.20
72585;BME280;60618;40.084;32.908;2023-04-26T05:47:02;89005.78;;;13.73;65.76
72585;BME280;60618;40.084;32.908;2023-04-26T05:49:29;89004.28;;;14.02;64.99
72585;BME280;60618;40.084;32.908;2023-04-26T05:51:59;89007.50;;;14.38;64.29
72585;BME280;60618;40.084;32.908;2023-04-26T05:54:26;88989.47;;;14.76;61.68
72585;BME280;60618;40.084;32.908;2023-04-26T05:56:53;88997.28;;;14.56;63.17
72585;BME280;60618;40.084;32.908;2023-04-26T05:59:22;88992.94;;;14.71;61.73
72585;BME280;60618;40.084;32.908;2023-04-26T06:01:49;88996.88;;;14.52;62.57
72585;BME280;60618;40.084;32.908;2023-04-26T06:04:16;88987.44;;;14.45;63.29
72585;BME280;60618;40.084;32.908;2023-04-26T06:06:43;88989.56;;;13.90;61.94
72585;BME280;60618;40.084;32.908;2023-04-26T06:09:10;88994.19;;;13.89;64.96
72585;BME280;60618;40.084;32.908;2023-04-26T06:11:37;88989.91;;;13.56;64.18
72585;BME280;60618;40.084;32.908;2023-04-26T06:14:04;88986.59;;;13.50;61.16
72585;BME280;60618;40.084;32.908;2023-04-26T06:16:30;88986.84;;;13.71;59.48
72585;BME280;60618;40.084;32.908;2023-04-26T06:18:57;88983.47;;;13.89;60.95
72585;BME280;60618;40.084;32.908;2023-04-26T06:21:24;88981.31;;;13.88;59.18
72585;BME280;60618;40.084;32.908;2023-04-26T06:23:51;88985.75;;;14.04;58.04
72585;BME280;60618;40.084;32.908;2023-04-26T06:26:18;88983.44;;;14.14;60.79
72585;BME280;60618;40.084;32.908;2023-04-26T06:28:45;88985.63;;;13.72;58.14
72585;BME280;60618;40.084;32.908;2023-04-26T06:31:12;88992.88;;;13.77;61.48
72585;BME280;60618;40.084;32.908;2023-04-26T06:33:39;88985.19;;;14.11;58.82
72585;BME280;60618;40.084;32.908;2023-04-26T06:36:10;88981.81;;;14.48;57.47
72585;BME280;60618;40.084;32.908;2023-04-26T06:38:37;88983.63;;;14.91;58.69
72585;BME280;60618;40.084;32.908;2023-04-26T06:41:04;88981.47;;;14.90;57.91
72585;BME280;60618;40.084;32.908;2023-04-26T06:43:31;88979.97;;;15.08;59.42
72585;BME280;60618;40.084;32.908;2023-04-26T06:45:58;88969.81;;;15.19;55.94
72585;BME280;60618;40.084;32.908;2023-04-26T06:48:25;88962.75;;;15.03;54.98
72585;BME280;60618;40.084;32.908;2023-04-26T06:50:52;88975.34;;;14.76;58.03
72585;BME280;60618;40.084;32.908;2023-04-26T06:53:19;88979.75;;;13.74;59.29
72585;BME280;60618;40.084;32.908;2023-04-26T06:55:48;88982.59;;;13.81;58.85
72585;BME280;60618;40.084;32.908;2023-04-26T06:58:15;88979.34;;;13.88;59.69
72585;BME280;60618;40.084;32.908;2023-04-26T07:00:42;88981.66;;;14.22;61.17
72585;BME280;60618;40.084;32.908;2023-04-26T07:03:09;88985.38;;;13.95;57.87
72585;BME280;60618;40.084;32.908;2023-04-26T07:05:38;88985.97;;;13.63;58.63
72585;BME280;60618;40.084;32.908;2023-04-26T07:08:05;88984.84;;;13.53;59.76
72585;BME280;60618;40.084;32.908;2023-04-26T07:10:32;88984.97;;;13.42;61.08
72585;BME280;60618;40.084;32.908;2023-04-26T07:13:00;88984.88;;;13.47;60.59
72585;BME280;60618;40.084;32.908;2023-04-26T07:15:27;88987.41;;;14.07;59.16
72585;BME280;60618;40.084;32.908;2023-04-26T07:17:54;88984.94;;;14.09;58.46
72585;BME280;60618;40.084;32.908;2023-04-26T07:20:21;88970.22;;;14.40;59.15
72585;BME280;60618;40.084;32.908;2023-04-26T07:22:48;88985.78;;;14.61;55.57
72585;BME280;60618;40.084;32.908;2023-04-26T07:25:16;88983.41;;;14.89;55.40
72585;BME280;60618;40.084;32.908;2023-04-26T07:27:44;88979.63;;;14.98;54.58
72585;BME280;60618;40.084;32.908;2023-04-26T07:30:14;88980.94;;;15.23;53.78
72585;BME280;60618;40.084;32.908;2023-04-26T07:32:41;88973.97;;;15.47;53.01
72585;BME280;60618;40.084;32.908;2023-04-26T07:35:09;88972.22;;;14.72;53.52
72585;BME280;60618;40.084;32.908;2023-04-26T07:37:36;88980.06;;;14.70;56.18
72585;BME280;60618;40.084;32.908;2023-04-26T07:40:03;88966.81;;;14.59;56.09
72585;BME280;60618;40.084;32.908;2023-04-26T07:42:30;88971.50;;;14.34;54.45
72585;BME280;60618;40.084;32.908;2023-04-26T07:44:57;88968.66;;;13.88;56.47
72585;BME280;60618;40.084;32.908;2023-04-26T07:47:24;88969.00;;;13.79;55.88
72585;BME280;60618;40.084;32.908;2023-04-26T07:49:53;88976.72;;;13.40;58.34
72585;BME280;60618;40.084;32.908;2023-04-26T07:52:20;88979.25;;;13.26;58.41
72585;BME280;60618;40.084;32.908;2023-04-26T07:54:47;88975.44;;;12.86;63.37
72585;BME280;60618;40.084;32.908;2023-04-26T07:57:14;88993.69;;;12.46;66.89
72585;BME280;60618;40.084;32.908;2023-04-26T07:59:41;88990.00;;;12.14;68.49
72585;BME280;60618;40.084;32.908;2023-04-26T08:02:08;88976.75;;;11.86;68.91
72585;BME280;60618;40.084;32.908;2023-04-26T08:04:35;88990.59;;;11.73;71.22
72585;BME280;60618;40.084;32.908;2023-04-26T08:07:02;88988.50;;;11.44;66.47
72585;BME280;60618;40.084;32.908;2023-04-26T08:09:29;88982.19;;;11.41;65.45
72585;BME280;60618;40.084;32.908;2023-04-26T08:11:56;88970.25;;;11.64;66.33
72585;BME280;60618;40.084;32.908;2023-04-26T08:14:23;88972.34;;;11.94;67.57
72585;BME280;60618;40.084;32.908;2023-04-26T08:16:50;88965.25;;;12.13;68.02
72585;BME280;60618;40.084;32.908;2023-04-26T08:19:17;88973.19;;;12.19;67.62
72585;BME280;60618;40.084;32.908;2023-04-26T08:21:44;88965.84;;;12.31;68.03
72585;BME280;60618;40.084;32.908;2023-04-26T08:24:11;88960.50;;;12.31;67.35
72585;BME280;60618;40.084;32.908;2023-04-26T08:26:38;88970.28;;;12.23;66.95
72585;BME280;60618;40.084;32.908;2023-04-26T08:29:04;88969.59;;;12.11;67.89
72585;BME280;60618;40.084;32.908;2023-04-26T08:31:31;88957.31;;;11.97;69.70
72585;BME280;60618;40.084;32.908;2023-04-26T08:33:58;88966.06;;;11.86;68.66
72585;BME280;60618;40.084;32.908;2023-04-26T08:36:25;88960.81;;;12.21;71.30
72585;BME280;60618;40.084;32.908;2023-04-26T08:38:52;88958.84;;;12.93;71.75
72585;BME280;60618;40.084;32.908;2023-04-26T08:41:21;88955.59;;;13.06;69.21
72585;BME280;60618;40.084;32.908;2023-04-26T08:43:49;88950.53;;;13.32;69.85
72585;BME280;60618;40.084;32.908;2023-04-26T08:46:18;88955.88;;;13.32;65.07
72585;BME280;60618;40.084;32.908;2023-04-26T08:48:50;88945.50;;;13.23;64.14
72585;BME280;60618;40.084;32.908;2023-04-26T08:51:20;88950.84;;;13.23;64.30
72585;BME280;60618;40.084;32.908;2023-04-26T08:53:49;88943.63;;;13.13;65.20
72585;BME280;60618;40.084;32.908;2023-04-26T08:56:17;88942.00;;;13.04;64.53
72585;BME280;60618;40.084;32.908;2023-04-26T08:58:44;88936.47;;;13.26;66.53
72585;BME280;60618;40.084;32.908;2023-04-26T09:01:13;88938.19;;;14.10;67.47
72585;BME280;60618;40.084;32.908;2023-04-26T09:03:40;88935.75;;;14.31;62.27
72585;BME280;60618;40.084;32.908;2023-04-26T09:06:08;88935.25;;;14.52;62.03
72585;BME280;60618;40.084;32.908;2023-04-26T09:08:39;88934.09;;;14.79;60.71
72585;BME280;60618;40.084;32.908;2023-04-26T09:11:07;88927.81;;;14.76;60.48
72585;BME280;60618;40.084;32.908;2023-04-26T09:13:34;88932.78;;;14.86;58.85
72585;BME280;60618;40.084;32.908;2023-04-26T09:16:00;88943.13;;;14.63;58.44
72585;BME280;60618;40.084;32.908;2023-04-26T09:18:30;88926.44;;;14.70;58.76
72585;BME280;60618;40.084;32.908;2023-04-26T09:21:03;88936.13;;;14.73;57.74
72585;BME280;60618;40.084;32.908;2023-04-26T09:23:30;88918.69;;;14.98;57.78
72585;BME280;60618;40.084;32.908;2023-04-26T09:26:20;88917.56;;;14.94;57.45
72585;BME280;60618;40.084;32.908;2023-04-26T09:28:48;88908.13;;;15.19;54.78
72585;BME280;60618;40.084;32.908;2023-04-26T09:31:37;88902.34;;;15.28;54.79
72585;BME280;60618;40.084;32.908;2023-04-26T09:34:05;88900.81;;;15.46;54.11
72585;BME280;60618;40.084;32.908;2023-04-26T09:36:32;88911.75;;;15.88;45.82
72585;BME280;60618;40.084;32.908;2023-04-26T09:38:59;88896.56;;;15.77;47.23
72585;BME280;60618;40.084;32.908;2023-04-26T09:41:41;88905.34;;;15.91;45.98
72585;BME280;60618;40.084;32.908;2023-04-26T09:44:20;88901.81;;;15.96;41.53
72585;BME280;60618;40.084;32.908;2023-04-26T09:46:58;88892.03;;;15.85;40.03
72585;BME280;60618;40.084;32.908;2023-04-26T09:49:30;88888.56;;;16.11;41.61
72585;BME280;60618;40.084;32.908;2023-04-26T09:52:04;88894.28;;;15.81;38.33
72585;BME280;60618;40.084;32.908;2023-04-26T09:54:48;88883.94;;;15.99;41.81
72585;BME280;60618;40.084;32.908;2023-04-26T09:57:16;88876.66;;;15.73;37.34
72585;BME280;60618;40.084;32.908;2023-04-26T09:59:45;88886.31;;;15.36;38.81
72585;BME280;60618;40.084;32.908;2023-04-26T10:02:21;88879.09;;;15.18;41.94
72585;BME280;60618;40.084;32.908;2023-04-26T10:04:51;88883.66;;;15.49;41.17
72585;BME280;60618;40.084;32.908;2023-04-26T10:07:20;88888.22;;;15.68;43.66
72585;BME280;60618;40.084;32.908;2023-04-26T10:09:48;88875.41;;;15.74;41.98
72585;BME280;60618;40.084;32.908;2023-04-26T10:12:17;88864.84;;;15.89;42.45
72585;BME280;60618;40.084;32.908;2023-04-26T10:14:45;88872.41;;;15.91;44.97
72585;BME280;60618;40.084;32.908;2023-04-26T10:17:13;88871.44;;;16.01;43.00
72585;BME280;60618;40.084;32.908;2023-04-26T10:19:41;88872.41;;;16.25;42.23
72585;BME280;60618;40.084;32.908;2023-04-26T10:22:23;88859.22;;;16.68;42.71
72585;BME280;60618;40.084;32.908;2023-04-26T10:24:53;88862.34;;;16.38;39.53
72585;BME280;60618;40.084;32.908;2023-04-26T10:27:46;88861.16;;;16.47;42.03
72585;BME280;60618;40.084;32.908;2023-04-26T10:30:18;88853.72;;;15.85;40.93
72585;BME280;60618;40.084;32.908;2023-04-26T10:35:18;88852.41;;;15.99;41.86
72585;BME280;60618;40.084;32.908;2023-04-26T10:40:33;88849.69;;;16.67;41.47
72585;BME280;60618;40.084;32.908;2023-04-26T10:45:40;88852.03;;;15.95;39.24
72585;BME280;60618;40.084;32.908;2023-04-26T10:48:29;88844.88;;;15.64;40.19
72585;BME280;60618;40.084;32.908;2023-04-26T11:01:53;88838.22;;;15.78;41.94
72585;BME280;60618;40.084;32.908;2023-04-26T11:04:20;88840.09;;;15.56;39.95
72585;BME280;60618;40.084;32.908;2023-04-26T11:06:54;88846.91;;;15.57;41.69
72585;BME280;60618;40.084;32.908;2023-04-26T11:09:48;88837.50;;;15.77;40.30
72585;BME280;60618;40.084;32.908;2023-04-26T11:12:15;88833.22;;;15.95;39.53
72585;BME280;60618;40.084;32.908;2023-04-26T11:14:43;88837.53;;;16.11;40.45
72585;BME280;60618;40.084;32.908;2023-04-26T11:17:11;88834.41;;;16.21;39.04
72585;BME280;60618;40.084;32.908;2023-04-26T11:19:40;88836.88;;;16.18;39.59
72585;BME280;60618;40.084;32.908;2023-04-26T11:22:07;88829.28;;;16.09;38.98
72585;BME280;60618;40.084;32.908;2023-04-26T11:24:35;88824.78;;;15.91;39.95
72585;BME280;60618;40.084;32.908;2023-04-26T11:27:09;88835.97;;;15.82;40.92
72585;BME280;60618;40.084;32.908;2023-04-26T11:29:37;88836.91;;;15.45;39.85
72585;BME280;60618;40.084;32.908;2023-04-26T11:32:04;88835.16;;;15.60;41.17
72585;BME280;60618;40.084;32.908;2023-04-26T11:37:01;88824.94;;;16.06;40.64
72585;BME280;60618;40.084;32.908;2023-04-26T11:39:30;88825.81;;;16.22;39.81
72585;BME280;60618;40.084;32.908;2023-04-26T11:44:31;88820.78;;;17.02;39.79
72585;BME280;60618;40.084;32.908;2023-04-26T11:47:00;88818.56;;;16.93;40.00
72585;BME280;60618;40.084;32.908;2023-04-26T11:49:27;88814.84;;;17.03;40.70
72585;BME280;60618;40.084;32.908;2023-04-26T11:51:54;88804.56;;;16.53;39.49
72585;BME280;60618;40.084;32.908;2023-04-26T11:54:28;88810.66;;;16.53;40.35
72585;BME280;60618;40.084;32.908;2023-04-26T11:56:57;88801.22;;;16.60;39.92
72585;BME280;60618;40.084;32.908;2023-04-26T11:59:28;88801.75;;;16.58;39.70
72585;BME280;60618;40.084;32.908;2023-04-26T12:01:56;88801.88;;;16.53;40.42
72585;BME280;60618;40.084;32.908;2023-04-26T12:04:29;88798.09;;;16.48;40.92
72585;BME280;60618;40.084;32.908;2023-04-26T12:06:57;88797.69;;;16.86;39.96
72585;BME280;60618;40.084;32.908;2023-04-26T12:09:27;88797.66;;;17.07;39.37
72585;BME280;60618;40.084;32.908;2023-04-26T12:12:01;88789.44;;;16.84;39.67
72585;BME280;60618;40.084;32.908;2023-04-26T12:14:36;88786.75;;;16.63;40.36
72585;BME280;60618;40.084;32.908;2023-04-26T12:17:04;88780.97;;;16.80;42.29
72585;BME280;60618;40.084;32.908;2023-04-26T12:19:35;88784.53;;;17.03;41.23
72585;BME280;60618;40.084;32.908;2023-04-26T12:22:02;88788.47;;;16.73;39.72
72585;BME280;60618;40.084;32.908;2023-04-26T12:24:30;88790.50;;;16.39;41.10
72585;BME280;60618;40.084;32.908;2023-04-26T12:26:57;88792.69;;;16.06;41.57
72585;BME280;60618;40.084;32.908;2023-04-26T12:29:27;88785.50;;;16.01;42.70
72585;BME280;60618;40.084;32.908;2023-04-26T12:31:55;88784.63;;;15.12;43.70
72585;BME280;60618;40.084;32.908;2023-04-26T12:34:22;88801.63;;;14.74;45.55
72585;BME280;60618;40.084;32.908;2023-04-26T12:36:49;88787.66;;;14.63;48.33
72585;BME280;60618;40.084;32.908;2023-04-26T12:39:16;88791.50;;;14.81;46.27
72585;BME280;60618;40.084;32.908;2023-04-26T12:41:44;88784.72;;;15.06;49.46
72585;BME280;60618;40.084;32.908;2023-04-26T12:44:11;88773.63;;;15.36;45.84
72585;BME280;60618;40.084;32.908;2023-04-26T12:46:38;88777.97;;;15.66;45.66
72585;BME280;60618;40.084;32.908;2023-04-26T12:49:05;88773.69;;;15.83;43.91
72585;BME280;60618;40.084;32.908;2023-04-26T12:51:32;88762.72;;;15.81;44.90
72585;BME280;60618;40.084;32.908;2023-04-26T12:53:59;88763.47;;;15.82;44.46
72585;BME280;60618;40.084;32.908;2023-04-26T12:56:28;88772.25;;;15.82;44.23
72585;BME280;60618;40.084;32.908;2023-04-26T12:58:55;88763.25;;;15.80;44.43
72585;BME280;60618;40.084;32.908;2023-04-26T13:01:22;88762.53;;;15.79;42.74
72585;BME280;60618;40.084;32.908;2023-04-26T13:03:49;88760.41;;;15.65;43.64
72585;BME280;60618;40.084;32.908;2023-04-26T13:06:16;88758.84;;;15.69;43.27
72585;BME280;60618;40.084;32.908;2023-04-26T13:08:43;88757.50;;;15.97;42.83
72585;BME280;60618;40.084;32.908;2023-04-26T13:11:10;88749.72;;;16.48;41.79
72585;BME280;60618;40.084;32.908;2023-04-26T13:13:37;88758.38;;;16.54;40.24
72585;BME280;60618;40.084;32.908;2023-04-26T13:16:10;88745.34;;;16.37;41.42
72585;BME280;60618;40.084;32.908;2023-04-26T13:18:38;88740.94;;;16.68;40.79
72585;BME280;60618;40.084;32.908;2023-04-26T13:21:06;88740.72;;;16.95;40.86